Overview Statistics Trail Chart Weather Telemetry Raw packets
 

This is the latest recevied weather packets stored in our database for station/object KB9YVI-11. If no packets are shown the sender has not sent any weather packets the latest 10 day(s).

<< 45 46 47 48 49 50 51 >>
Time Temp. Humidity Pressure Rain* Wind** Luminosity Snow
1788049030 23.89° C 100% 0 hPa 0 mm - - -
1788048430 23.89° C 100% 0 hPa 0 mm - - -
1788048130 23.89° C 99% 0 hPa 0 mm - - -
1788047830 23.89° C 99% 0 hPa 0 mm - - -
1788047530 23.89° C 98% 0 hPa 0 mm - - -
1788046930 24.44° C 99% 0 hPa 0 mm - - -
1788046330 24.44° C 98% 0 hPa 0 mm - - -
1788046030 24.44° C 97% 0 hPa 0 mm - - -
1788045729 25° C 97% 0 hPa 0 mm - - -
1788042129 26.67° C 79% 0 hPa 0 mm - - -
1788041530 27.22° C 83% 0 hPa 0 mm - - -
1788040930 26.67° C 86% 0 hPa 0 mm - - -
1788040031 26.67° C 84% 0 hPa 0 mm - - -
1788039730 26.67° C 84% 0 hPa 0 mm - - -
1788039132 26.67° C 84% 0 hPa 0 mm - - -
1788038831 26.67° C 83% 0 hPa 0 mm - - -
1788038529 26.67° C 82% 0 hPa 0 mm - - -
1788038231 26.67° C 80% 0 hPa 0 mm - - -
1788037932 26.67° C 79% 0 hPa 0 mm - - -
1788037031 27.22° C 79% 0 hPa 0 mm - - -
1788036431 27.78° C 76% 0 hPa 0 mm - - -
1788036131 27.78° C 73% 0 hPa 0 mm - - -
1788035832 27.78° C 72% 0 hPa 0 mm - - -
1788035531 27.78° C 73% 0 hPa 0 mm - - -
1788035231 27.78° C 72% 0 hPa 0 mm - - -

* Rain latest hour (hover to see other rain measurements)
** Current wind speed in m/s (hover to see current wind gust speed)